<?xml version="1.0" encoding="UTF-8" standalone="no" ?>
<gpx xmlns="http://www.topografix.com/GPX/1/1" xmlns:xsi="http://www.w3.org/2001/XMLSchema-instance" xsi:schemaLocation="http://www.topografix.com/GPX/1/1 http://www.topografix.com/GPX/1/1/gpx.xsd" version="1.1" creator="VisuGPX - https://www.visugpx.com">
  <metadata>
    <name>13346231-Lamure-Ternand3</name>
  </metadata>
  <trk>
    <name><![CDATA[13346231-Lamure-Ternand3]]></name>
    <trkseg>
      <trkpt lat="46.06184" lon="4.49315">
        <ele>396</ele>
        <time>2021-07-06T00:05:50Z</time>
      </trkpt>
      <trkpt lat="46.06176" lon="4.49315">
        <ele>397</ele>
        <time>2021-07-06T00:05:56Z</time>
      </trkpt>
      <trkpt lat="46.06166" lon="4.49345">
        <ele>401</ele>
        <time>2021-07-06T00:06:15Z</time>
      </trkpt>
      <trkpt lat="46.06158" lon="4.49339">
        <ele>401</ele>
        <time>2021-07-06T00:06:22Z</time>
      </trkpt>
      <trkpt lat="46.06128" lon="4.49338">
        <ele>404</ele>
        <time>2021-07-06T00:06:46Z</time>
      </trkpt>
      <trkpt lat="46.06118" lon="4.49333">
        <ele>404</ele>
        <time>2021-07-06T00:06:55Z</time>
      </trkpt>
      <trkpt lat="46.06102" lon="4.49328">
        <ele>405</ele>
        <time>2021-07-06T00:07:08Z</time>
      </trkpt>
      <trkpt lat="46.06073" lon="4.49308">
        <ele>402</ele>
        <time>2021-07-06T00:07:33Z</time>
      </trkpt>
      <trkpt lat="46.06052" lon="4.49297">
        <ele>400</ele>
        <time>2021-07-06T00:07:51Z</time>
      </trkpt>
      <trkpt lat="46.06023" lon="4.4929">
        <ele>399</ele>
        <time>2021-07-06T00:08:15Z</time>
      </trkpt>
      <trkpt lat="46.06007" lon="4.49289">
        <ele>399</ele>
        <time>2021-07-06T00:08:28Z</time>
      </trkpt>
      <trkpt lat="46.05959" lon="4.49307">
        <ele>400</ele>
        <time>2021-07-06T00:09:07Z</time>
      </trkpt>
      <trkpt lat="46.05932" lon="4.49313">
        <ele>400</ele>
        <time>2021-07-06T00:09:29Z</time>
      </trkpt>
      <trkpt lat="46.05883" lon="4.49318">
        <ele>395</ele>
        <time>2021-07-06T00:10:09Z</time>
      </trkpt>
      <trkpt lat="46.0587" lon="4.49321">
        <ele>394</ele>
        <time>2021-07-06T00:10:19Z</time>
      </trkpt>
      <trkpt lat="46.05854" lon="4.49332">
        <ele>393</ele>
        <time>2021-07-06T00:10:33Z</time>
      </trkpt>
      <trkpt lat="46.05806" lon="4.49377">
        <ele>397</ele>
        <time>2021-07-06T00:11:19Z</time>
      </trkpt>
      <trkpt lat="46.05787" lon="4.49408">
        <ele>399</ele>
        <time>2021-07-06T00:11:42Z</time>
      </trkpt>
      <trkpt lat="46.05769" lon="4.49416">
        <ele>396</ele>
        <time>2021-07-06T00:11:57Z</time>
      </trkpt>
      <trkpt lat="46.05686" lon="4.49486">
        <ele>391</ele>
        <time>2021-07-06T00:13:14Z</time>
      </trkpt>
      <trkpt lat="46.05666" lon="4.495">
        <ele>388</ele>
        <time>2021-07-06T00:13:32Z</time>
      </trkpt>
      <trkpt lat="46.05662" lon="4.49502">
        <ele>388</ele>
        <time>2021-07-06T00:13:35Z</time>
      </trkpt>
      <trkpt lat="46.05642" lon="4.49491">
        <ele>385</ele>
        <time>2021-07-06T00:13:53Z</time>
      </trkpt>
      <trkpt lat="46.05614" lon="4.49509">
        <ele>385</ele>
        <time>2021-07-06T00:14:17Z</time>
      </trkpt>
      <trkpt lat="46.05564" lon="4.49509">
        <ele>382</ele>
        <time>2021-07-06T00:14:57Z</time>
      </trkpt>
      <trkpt lat="46.05533" lon="4.4954">
        <ele>385</ele>
        <time>2021-07-06T00:15:27Z</time>
      </trkpt>
      <trkpt lat="46.05518" lon="4.49558">
        <ele>386</ele>
        <time>2021-07-06T00:15:43Z</time>
      </trkpt>
      <trkpt lat="46.05504" lon="4.49568">
        <ele>386</ele>
        <time>2021-07-06T00:15:56Z</time>
      </trkpt>
      <trkpt lat="46.05467" lon="4.49575">
        <ele>384</ele>
        <time>2021-07-06T00:16:25Z</time>
      </trkpt>
      <trkpt lat="46.05405" lon="4.49604">
        <ele>384</ele>
        <time>2021-07-06T00:17:18Z</time>
      </trkpt>
      <trkpt lat="46.05365" lon="4.49616">
        <ele>383</ele>
        <time>2021-07-06T00:17:50Z</time>
      </trkpt>
      <trkpt lat="46.05327" lon="4.49624">
        <ele>381</ele>
        <time>2021-07-06T00:18:21Z</time>
      </trkpt>
      <trkpt lat="46.05304" lon="4.49627">
        <ele>381</ele>
        <time>2021-07-06T00:18:40Z</time>
      </trkpt>
      <trkpt lat="46.05263" lon="4.49623">
        <ele>380</ele>
        <time>2021-07-06T00:19:12Z</time>
      </trkpt>
      <trkpt lat="46.05229" lon="4.49618">
        <ele>381</ele>
        <time>2021-07-06T00:19:40Z</time>
      </trkpt>
      <trkpt lat="46.05186" lon="4.49608">
        <ele>382</ele>
        <time>2021-07-06T00:20:15Z</time>
      </trkpt>
      <trkpt lat="46.05155" lon="4.49597">
        <ele>383</ele>
        <time>2021-07-06T00:20:40Z</time>
      </trkpt>
      <trkpt lat="46.05127" lon="4.4958">
        <ele>381</ele>
        <time>2021-07-06T00:21:05Z</time>
      </trkpt>
      <trkpt lat="46.05068" lon="4.4953">
        <ele>379</ele>
        <time>2021-07-06T00:21:59Z</time>
      </trkpt>
      <trkpt lat="46.05038" lon="4.49491">
        <ele>377</ele>
        <time>2021-07-06T00:22:32Z</time>
      </trkpt>
      <trkpt lat="46.05014" lon="4.4946">
        <ele>377</ele>
        <time>2021-07-06T00:22:58Z</time>
      </trkpt>
      <trkpt lat="46.05011" lon="4.49464">
        <ele>377</ele>
        <time>2021-07-06T00:23:01Z</time>
      </trkpt>
      <trkpt lat="46.04996" lon="4.49471">
        <ele>379</ele>
        <time>2021-07-06T00:23:13Z</time>
      </trkpt>
      <trkpt lat="46.04985" lon="4.49468">
        <ele>380</ele>
        <time>2021-07-06T00:23:22Z</time>
      </trkpt>
      <trkpt lat="46.04924" lon="4.49397">
        <ele>381</ele>
        <time>2021-07-06T00:24:25Z</time>
      </trkpt>
      <trkpt lat="46.0491" lon="4.49385">
        <ele>382</ele>
        <time>2021-07-06T00:24:38Z</time>
      </trkpt>
      <trkpt lat="46.04906" lon="4.49381">
        <ele>382</ele>
        <time>2021-07-06T00:24:42Z</time>
      </trkpt>
      <trkpt lat="46.04902" lon="4.49373">
        <ele>382</ele>
        <time>2021-07-06T00:24:48Z</time>
      </trkpt>
      <trkpt lat="46.04861" lon="4.49321">
        <ele>383</ele>
        <time>2021-07-06T00:25:31Z</time>
      </trkpt>
      <trkpt lat="46.04821" lon="4.49258">
        <ele>380</ele>
        <time>2021-07-06T00:26:19Z</time>
      </trkpt>
      <trkpt lat="46.04806" lon="4.49237">
        <ele>378</ele>
        <time>2021-07-06T00:26:36Z</time>
      </trkpt>
      <trkpt lat="46.04791" lon="4.49226">
        <ele>378</ele>
        <time>2021-07-06T00:26:49Z</time>
      </trkpt>
      <trkpt lat="46.04746" lon="4.49207">
        <ele>379</ele>
        <time>2021-07-06T00:27:27Z</time>
      </trkpt>
      <trkpt lat="46.04741" lon="4.49203">
        <ele>379</ele>
        <time>2021-07-06T00:27:31Z</time>
      </trkpt>
      <trkpt lat="46.04703" lon="4.49153">
        <ele>374</ele>
        <time>2021-07-06T00:28:12Z</time>
      </trkpt>
      <trkpt lat="46.047" lon="4.49151">
        <ele>374</ele>
        <time>2021-07-06T00:28:15Z</time>
      </trkpt>
      <trkpt lat="46.04693" lon="4.49152">
        <ele>374</ele>
        <time>2021-07-06T00:28:21Z</time>
      </trkpt>
      <trkpt lat="46.04684" lon="4.49159">
        <ele>374</ele>
        <time>2021-07-06T00:28:29Z</time>
      </trkpt>
      <trkpt lat="46.04676" lon="4.49172">
        <ele>375</ele>
        <time>2021-07-06T00:28:39Z</time>
      </trkpt>
      <trkpt lat="46.04664" lon="4.49197">
        <ele>376</ele>
        <time>2021-07-06T00:28:55Z</time>
      </trkpt>
      <trkpt lat="46.0466" lon="4.49202">
        <ele>377</ele>
        <time>2021-07-06T00:29:00Z</time>
      </trkpt>
      <trkpt lat="46.04654" lon="4.49207">
        <ele>378</ele>
        <time>2021-07-06T00:29:05Z</time>
      </trkpt>
      <trkpt lat="46.0465" lon="4.49206">
        <ele>379</ele>
        <time>2021-07-06T00:29:08Z</time>
      </trkpt>
      <trkpt lat="46.04645" lon="4.49205">
        <ele>379</ele>
        <time>2021-07-06T00:29:12Z</time>
      </trkpt>
      <trkpt lat="46.04635" lon="4.49197">
        <ele>380</ele>
        <time>2021-07-06T00:29:22Z</time>
      </trkpt>
      <trkpt lat="46.04611" lon="4.49159">
        <ele>380</ele>
        <time>2021-07-06T00:29:50Z</time>
      </trkpt>
      <trkpt lat="46.04601" lon="4.49148">
        <ele>380</ele>
        <time>2021-07-06T00:30:00Z</time>
      </trkpt>
      <trkpt lat="46.04595" lon="4.49145">
        <ele>380</ele>
        <time>2021-07-06T00:30:05Z</time>
      </trkpt>
      <trkpt lat="46.0458" lon="4.49141">
        <ele>381</ele>
        <time>2021-07-06T00:30:18Z</time>
      </trkpt>
      <trkpt lat="46.04542" lon="4.49142">
        <ele>382</ele>
        <time>2021-07-06T00:30:48Z</time>
      </trkpt>
      <trkpt lat="46.04512" lon="4.49144">
        <ele>383</ele>
        <time>2021-07-06T00:31:12Z</time>
      </trkpt>
      <trkpt lat="46.04504" lon="4.49155">
        <ele>385</ele>
        <time>2021-07-06T00:31:21Z</time>
      </trkpt>
      <trkpt lat="46.04487" lon="4.4917">
        <ele>389</ele>
        <time>2021-07-06T00:31:37Z</time>
      </trkpt>
      <trkpt lat="46.04441" lon="4.49162">
        <ele>391</ele>
        <time>2021-07-06T00:32:14Z</time>
      </trkpt>
      <trkpt lat="46.04418" lon="4.49175">
        <ele>395</ele>
        <time>2021-07-06T00:32:34Z</time>
      </trkpt>
      <trkpt lat="46.04408" lon="4.49169">
        <ele>394</ele>
        <time>2021-07-06T00:32:42Z</time>
      </trkpt>
      <trkpt lat="46.04397" lon="4.49158">
        <ele>392</ele>
        <time>2021-07-06T00:32:53Z</time>
      </trkpt>
      <trkpt lat="46.04391" lon="4.49146">
        <ele>389</ele>
        <time>2021-07-06T00:33:01Z</time>
      </trkpt>
      <trkpt lat="46.04367" lon="4.49116">
        <ele>383</ele>
        <time>2021-07-06T00:33:27Z</time>
      </trkpt>
      <trkpt lat="46.04357" lon="4.49113">
        <ele>382</ele>
        <time>2021-07-06T00:33:35Z</time>
      </trkpt>
      <trkpt lat="46.04322" lon="4.49118">
        <ele>382</ele>
        <time>2021-07-06T00:34:03Z</time>
      </trkpt>
      <trkpt lat="46.04312" lon="4.49121">
        <ele>382</ele>
        <time>2021-07-06T00:34:11Z</time>
      </trkpt>
      <trkpt lat="46.0424" lon="4.49162">
        <ele>384</ele>
        <time>2021-07-06T00:35:13Z</time>
      </trkpt>
      <trkpt lat="46.04232" lon="4.49164">
        <ele>384</ele>
        <time>2021-07-06T00:35:20Z</time>
      </trkpt>
      <trkpt lat="46.04208" lon="4.49165">
        <ele>380</ele>
        <time>2021-07-06T00:35:39Z</time>
      </trkpt>
      <trkpt lat="46.04147" lon="4.4916">
        <ele>372</ele>
        <time>2021-07-06T00:36:28Z</time>
      </trkpt>
      <trkpt lat="46.04119" lon="4.49165">
        <ele>371</ele>
        <time>2021-07-06T00:36:51Z</time>
      </trkpt>
      <trkpt lat="46.04076" lon="4.49188">
        <ele>373</ele>
        <time>2021-07-06T00:37:27Z</time>
      </trkpt>
      <trkpt lat="46.04028" lon="4.49228">
        <ele>376</ele>
        <time>2021-07-06T00:38:12Z</time>
      </trkpt>
      <trkpt lat="46.04003" lon="4.49243">
        <ele>375</ele>
        <time>2021-07-06T00:38:33Z</time>
      </trkpt>
      <trkpt lat="46.0395" lon="4.4927">
        <ele>374</ele>
        <time>2021-07-06T00:39:18Z</time>
      </trkpt>
      <trkpt lat="46.03908" lon="4.49299">
        <ele>372</ele>
        <time>2021-07-06T00:39:56Z</time>
      </trkpt>
      <trkpt lat="46.03836" lon="4.49391">
        <ele>382</ele>
        <time>2021-07-06T00:41:13Z</time>
      </trkpt>
      <trkpt lat="46.03829" lon="4.49399">
        <ele>382</ele>
        <time>2021-07-06T00:41:20Z</time>
      </trkpt>
      <trkpt lat="46.03826" lon="4.49404">
        <ele>383</ele>
        <time>2021-07-06T00:41:24Z</time>
      </trkpt>
      <trkpt lat="46.03826" lon="4.49414">
        <ele>386</ele>
        <time>2021-07-06T00:41:29Z</time>
      </trkpt>
      <trkpt lat="46.03829" lon="4.49419">
        <ele>388</ele>
        <time>2021-07-06T00:41:33Z</time>
      </trkpt>
      <trkpt lat="46.03728" lon="4.49498">
        <ele>390</ele>
        <time>2021-07-06T00:43:05Z</time>
      </trkpt>
      <trkpt lat="46.0371" lon="4.49509">
        <ele>389</ele>
        <time>2021-07-06T00:43:20Z</time>
      </trkpt>
      <trkpt lat="46.03683" lon="4.49518">
        <ele>384</ele>
        <time>2021-07-06T00:43:43Z</time>
      </trkpt>
      <trkpt lat="46.03625" lon="4.49544">
        <ele>381</ele>
        <time>2021-07-06T00:44:31Z</time>
      </trkpt>
      <trkpt lat="46.03606" lon="4.49547">
        <ele>379</ele>
        <time>2021-07-06T00:44:47Z</time>
      </trkpt>
      <trkpt lat="46.03564" lon="4.49562">
        <ele>376</ele>
        <time>2021-07-06T00:45:21Z</time>
      </trkpt>
      <trkpt lat="46.03462" lon="4.49588">
        <ele>364</ele>
        <time>2021-07-06T00:46:44Z</time>
      </trkpt>
      <trkpt lat="46.03405" lon="4.49607">
        <ele>362</ele>
        <time>2021-07-06T00:47:31Z</time>
      </trkpt>
      <trkpt lat="46.03352" lon="4.49618">
        <ele>359</ele>
        <time>2021-07-06T00:48:14Z</time>
      </trkpt>
      <trkpt lat="46.03316" lon="4.49636">
        <ele>359</ele>
        <time>2021-07-06T00:48:44Z</time>
      </trkpt>
      <trkpt lat="46.03267" lon="4.49671">
        <ele>358</ele>
        <time>2021-07-06T00:49:28Z</time>
      </trkpt>
      <trkpt lat="46.03249" lon="4.49611">
        <ele>353</ele>
        <time>2021-07-06T00:50:05Z</time>
      </trkpt>
      <trkpt lat="46.0318" lon="4.49649">
        <ele>355</ele>
        <time>2021-07-06T00:51:04Z</time>
      </trkpt>
      <trkpt lat="46.03106" lon="4.49684">
        <ele>353</ele>
        <time>2021-07-06T00:52:06Z</time>
      </trkpt>
      <trkpt lat="46.02967" lon="4.49744">
        <ele>352</ele>
        <time>2021-07-06T00:54:02Z</time>
      </trkpt>
      <trkpt lat="46.02942" lon="4.4975">
        <ele>352</ele>
        <time>2021-07-06T00:54:23Z</time>
      </trkpt>
      <trkpt lat="46.02893" lon="4.49756">
        <ele>352</ele>
        <time>2021-07-06T00:55:02Z</time>
      </trkpt>
      <trkpt lat="46.02716" lon="4.49787">
        <ele>351</ele>
        <time>2021-07-06T00:57:25Z</time>
      </trkpt>
      <trkpt lat="46.02687" lon="4.49798">
        <ele>352</ele>
        <time>2021-07-06T00:57:49Z</time>
      </trkpt>
      <trkpt lat="46.02543" lon="4.49871">
        <ele>359</ele>
        <time>2021-07-06T00:59:51Z</time>
      </trkpt>
      <trkpt lat="46.0246" lon="4.49911">
        <ele>353</ele>
        <time>2021-07-06T01:01:01Z</time>
      </trkpt>
      <trkpt lat="46.02426" lon="4.49924">
        <ele>350</ele>
        <time>2021-07-06T01:01:29Z</time>
      </trkpt>
      <trkpt lat="46.02357" lon="4.4994">
        <ele>348</ele>
        <time>2021-07-06T01:02:25Z</time>
      </trkpt>
      <trkpt lat="46.02193" lon="4.49951">
        <ele>342</ele>
        <time>2021-07-06T01:04:37Z</time>
      </trkpt>
      <trkpt lat="46.02154" lon="4.49948">
        <ele>343</ele>
        <time>2021-07-06T01:05:08Z</time>
      </trkpt>
      <trkpt lat="46.02096" lon="4.49939">
        <ele>346</ele>
        <time>2021-07-06T01:05:55Z</time>
      </trkpt>
      <trkpt lat="46.02051" lon="4.49928">
        <ele>346</ele>
        <time>2021-07-06T01:06:31Z</time>
      </trkpt>
      <trkpt lat="46.02025" lon="4.49931">
        <ele>347</ele>
        <time>2021-07-06T01:06:52Z</time>
      </trkpt>
      <trkpt lat="46.01988" lon="4.4994">
        <ele>349</ele>
        <time>2021-07-06T01:07:22Z</time>
      </trkpt>
      <trkpt lat="46.01969" lon="4.49941">
        <ele>350</ele>
        <time>2021-07-06T01:07:37Z</time>
      </trkpt>
      <trkpt lat="46.01969" lon="4.49935">
        <ele>350</ele>
        <time>2021-07-06T01:07:41Z</time>
      </trkpt>
      <trkpt lat="46.01912" lon="4.49886">
        <ele>347</ele>
        <time>2021-07-06T01:08:34Z</time>
      </trkpt>
      <trkpt lat="46.01881" lon="4.49864">
        <ele>345</ele>
        <time>2021-07-06T01:09:01Z</time>
      </trkpt>
      <trkpt lat="46.01844" lon="4.49849">
        <ele>344</ele>
        <time>2021-07-06T01:09:32Z</time>
      </trkpt>
      <trkpt lat="46.01841" lon="4.4986">
        <ele>345</ele>
        <time>2021-07-06T01:09:39Z</time>
      </trkpt>
      <trkpt lat="46.01837" lon="4.4989">
        <ele>349</ele>
        <time>2021-07-06T01:09:56Z</time>
      </trkpt>
      <trkpt lat="46.01805" lon="4.49859">
        <ele>348</ele>
        <time>2021-07-06T01:10:27Z</time>
      </trkpt>
      <trkpt lat="46.01707" lon="4.49797">
        <ele>347</ele>
        <time>2021-07-06T01:11:52Z</time>
      </trkpt>
      <trkpt lat="46.01615" lon="4.49729">
        <ele>344</ele>
        <time>2021-07-06T01:13:15Z</time>
      </trkpt>
      <trkpt lat="46.01612" lon="4.49716">
        <ele>343</ele>
        <time>2021-07-06T01:13:23Z</time>
      </trkpt>
      <trkpt lat="46.01601" lon="4.49704">
        <ele>343</ele>
        <time>2021-07-06T01:13:34Z</time>
      </trkpt>
      <trkpt lat="46.01593" lon="4.49701">
        <ele>343</ele>
        <time>2021-07-06T01:13:40Z</time>
      </trkpt>
      <trkpt lat="46.01575" lon="4.49699">
        <ele>343</ele>
        <time>2021-07-06T01:13:55Z</time>
      </trkpt>
      <trkpt lat="46.01563" lon="4.49702">
        <ele>343</ele>
        <time>2021-07-06T01:14:05Z</time>
      </trkpt>
      <trkpt lat="46.01552" lon="4.49709">
        <ele>343</ele>
        <time>2021-07-06T01:14:14Z</time>
      </trkpt>
      <trkpt lat="46.01542" lon="4.49724">
        <ele>344</ele>
        <time>2021-07-06T01:14:26Z</time>
      </trkpt>
      <trkpt lat="46.01437" lon="4.49811">
        <ele>345</ele>
        <time>2021-07-06T01:16:03Z</time>
      </trkpt>
      <trkpt lat="46.01412" lon="4.49821">
        <ele>344</ele>
        <time>2021-07-06T01:16:24Z</time>
      </trkpt>
      <trkpt lat="46.01387" lon="4.49824">
        <ele>347</ele>
        <time>2021-07-06T01:16:44Z</time>
      </trkpt>
      <trkpt lat="46.01371" lon="4.49817">
        <ele>347</ele>
        <time>2021-07-06T01:16:57Z</time>
      </trkpt>
      <trkpt lat="46.0134" lon="4.49795">
        <ele>345</ele>
        <time>2021-07-06T01:17:25Z</time>
      </trkpt>
      <trkpt lat="46.01341" lon="4.49788">
        <ele>344</ele>
        <time>2021-07-06T01:17:29Z</time>
      </trkpt>
      <trkpt lat="46.01339" lon="4.49773">
        <ele>340</ele>
        <time>2021-07-06T01:17:37Z</time>
      </trkpt>
      <trkpt lat="46.01332" lon="4.49765">
        <ele>339</ele>
        <time>2021-07-06T01:17:44Z</time>
      </trkpt>
      <trkpt lat="46.01303" lon="4.49742">
        <ele>336</ele>
        <time>2021-07-06T01:18:11Z</time>
      </trkpt>
      <trkpt lat="46.01276" lon="4.49734">
        <ele>336</ele>
        <time>2021-07-06T01:18:33Z</time>
      </trkpt>
      <trkpt lat="46.01236" lon="4.49738">
        <ele>337</ele>
        <time>2021-07-06T01:19:05Z</time>
      </trkpt>
      <trkpt lat="46.01208" lon="4.49738">
        <ele>336</ele>
        <time>2021-07-06T01:19:27Z</time>
      </trkpt>
      <trkpt lat="46.01187" lon="4.49742">
        <ele>335</ele>
        <time>2021-07-06T01:19:44Z</time>
      </trkpt>
      <trkpt lat="46.01164" lon="4.49752">
        <ele>336</ele>
        <time>2021-07-06T01:20:04Z</time>
      </trkpt>
      <trkpt lat="46.01156" lon="4.49753">
        <ele>336</ele>
        <time>2021-07-06T01:20:10Z</time>
      </trkpt>
      <trkpt lat="46.01151" lon="4.49751">
        <ele>336</ele>
        <time>2021-07-06T01:20:14Z</time>
      </trkpt>
      <trkpt lat="46.0113" lon="4.4977">
        <ele>342</ele>
        <time>2021-07-06T01:20:34Z</time>
      </trkpt>
      <trkpt lat="46.01128" lon="4.49775">
        <ele>343</ele>
        <time>2021-07-06T01:20:37Z</time>
      </trkpt>
      <trkpt lat="46.01117" lon="4.49773">
        <ele>344</ele>
        <time>2021-07-06T01:20:46Z</time>
      </trkpt>
      <trkpt lat="46.01023" lon="4.49734">
        <ele>339</ele>
        <time>2021-07-06T01:22:04Z</time>
      </trkpt>
      <trkpt lat="46.00987" lon="4.49712">
        <ele>336</ele>
        <time>2021-07-06T01:22:36Z</time>
      </trkpt>
      <trkpt lat="46.0095" lon="4.49696">
        <ele>335</ele>
        <time>2021-07-06T01:23:07Z</time>
      </trkpt>
      <trkpt lat="46.00858" lon="4.49703">
        <ele>335</ele>
        <time>2021-07-06T01:24:20Z</time>
      </trkpt>
      <trkpt lat="46.00857" lon="4.49695">
        <ele>334</ele>
        <time>2021-07-06T01:24:25Z</time>
      </trkpt>
      <trkpt lat="46.00854" lon="4.49692">
        <ele>334</ele>
        <time>2021-07-06T01:24:28Z</time>
      </trkpt>
      <trkpt lat="46.00805" lon="4.49694">
        <ele>332</ele>
        <time>2021-07-06T01:25:07Z</time>
      </trkpt>
      <trkpt lat="46.00731" lon="4.49744">
        <ele>328</ele>
        <time>2021-07-06T01:26:13Z</time>
      </trkpt>
      <trkpt lat="46.0072" lon="4.49757">
        <ele>329</ele>
        <time>2021-07-06T01:26:24Z</time>
      </trkpt>
      <trkpt lat="46.00719" lon="4.49772">
        <ele>331</ele>
        <time>2021-07-06T01:26:32Z</time>
      </trkpt>
      <trkpt lat="46.007" lon="4.49777">
        <ele>331</ele>
        <time>2021-07-06T01:26:48Z</time>
      </trkpt>
      <trkpt lat="46.00653" lon="4.49783">
        <ele>330</ele>
        <time>2021-07-06T01:27:26Z</time>
      </trkpt>
      <trkpt lat="46.00598" lon="4.4977">
        <ele>327</ele>
        <time>2021-07-06T01:28:10Z</time>
      </trkpt>
      <trkpt lat="46.00544" lon="4.49746">
        <ele>329</ele>
        <time>2021-07-06T01:28:56Z</time>
      </trkpt>
      <trkpt lat="46.00484" lon="4.49705">
        <ele>333</ele>
        <time>2021-07-06T01:29:49Z</time>
      </trkpt>
      <trkpt lat="46.00444" lon="4.49686">
        <ele>334</ele>
        <time>2021-07-06T01:30:22Z</time>
      </trkpt>
      <trkpt lat="46.0041" lon="4.49679">
        <ele>335</ele>
        <time>2021-07-06T01:30:50Z</time>
      </trkpt>
      <trkpt lat="46.00255" lon="4.49694">
        <ele>332</ele>
        <time>2021-07-06T01:32:54Z</time>
      </trkpt>
      <trkpt lat="46.00206" lon="4.49706">
        <ele>331</ele>
        <time>2021-07-06T01:33:34Z</time>
      </trkpt>
      <trkpt lat="46.0016" lon="4.49732">
        <ele>328</ele>
        <time>2021-07-06T01:34:14Z</time>
      </trkpt>
      <trkpt lat="45.99953" lon="4.49881">
        <ele>331</ele>
        <time>2021-07-06T01:37:19Z</time>
      </trkpt>
      <trkpt lat="45.99908" lon="4.49911">
        <ele>332</ele>
        <time>2021-07-06T01:37:59Z</time>
      </trkpt>
      <trkpt lat="45.99887" lon="4.49922">
        <ele>333</ele>
        <time>2021-07-06T01:38:17Z</time>
      </trkpt>
      <trkpt lat="45.99861" lon="4.49932">
        <ele>333</ele>
        <time>2021-07-06T01:38:38Z</time>
      </trkpt>
      <trkpt lat="45.99843" lon="4.49935">
        <ele>332</ele>
        <time>2021-07-06T01:38:53Z</time>
      </trkpt>
      <trkpt lat="45.99792" lon="4.49934">
        <ele>329</ele>
        <time>2021-07-06T01:39:33Z</time>
      </trkpt>
      <trkpt lat="45.99743" lon="4.49921">
        <ele>325</ele>
        <time>2021-07-06T01:40:13Z</time>
      </trkpt>
      <trkpt lat="45.99722" lon="4.49921">
        <ele>324</ele>
        <time>2021-07-06T01:40:30Z</time>
      </trkpt>
      <trkpt lat="45.99707" lon="4.49924">
        <ele>324</ele>
        <time>2021-07-06T01:40:42Z</time>
      </trkpt>
      <trkpt lat="45.99692" lon="4.49931">
        <ele>325</ele>
        <time>2021-07-06T01:40:55Z</time>
      </trkpt>
      <trkpt lat="45.99665" lon="4.49945">
        <ele>326</ele>
        <time>2021-07-06T01:41:18Z</time>
      </trkpt>
      <trkpt lat="45.9961" lon="4.49981">
        <ele>327</ele>
        <time>2021-07-06T01:42:06Z</time>
      </trkpt>
      <trkpt lat="45.99603" lon="4.50008">
        <ele>327</ele>
        <time>2021-07-06T01:42:22Z</time>
      </trkpt>
      <trkpt lat="45.99593" lon="4.50028">
        <ele>328</ele>
        <time>2021-07-06T01:42:36Z</time>
      </trkpt>
      <trkpt lat="45.9958" lon="4.50047">
        <ele>328</ele>
        <time>2021-07-06T01:42:51Z</time>
      </trkpt>
      <trkpt lat="45.99577" lon="4.50058">
        <ele>330</ele>
        <time>2021-07-06T01:42:57Z</time>
      </trkpt>
      <trkpt lat="45.99582" lon="4.50068">
        <ele>331</ele>
        <time>2021-07-06T01:43:04Z</time>
      </trkpt>
      <trkpt lat="45.99575" lon="4.50093">
        <ele>334</ele>
        <time>2021-07-06T01:43:19Z</time>
      </trkpt>
      <trkpt lat="45.99565" lon="4.50106">
        <ele>335</ele>
        <time>2021-07-06T01:43:30Z</time>
      </trkpt>
      <trkpt lat="45.99553" lon="4.50119">
        <ele>335</ele>
        <time>2021-07-06T01:43:42Z</time>
      </trkpt>
      <trkpt lat="45.99521" lon="4.50128">
        <ele>332</ele>
        <time>2021-07-06T01:44:08Z</time>
      </trkpt>
      <trkpt lat="45.99507" lon="4.50141">
        <ele>332</ele>
        <time>2021-07-06T01:44:22Z</time>
      </trkpt>
      <trkpt lat="45.99493" lon="4.50142">
        <ele>331</ele>
        <time>2021-07-06T01:44:33Z</time>
      </trkpt>
      <trkpt lat="45.9949" lon="4.50148">
        <ele>331</ele>
        <time>2021-07-06T01:44:37Z</time>
      </trkpt>
      <trkpt lat="45.99485" lon="4.50171">
        <ele>333</ele>
        <time>2021-07-06T01:44:50Z</time>
      </trkpt>
      <trkpt lat="45.99472" lon="4.50201">
        <ele>337</ele>
        <time>2021-07-06T01:45:10Z</time>
      </trkpt>
      <trkpt lat="45.99445" lon="4.50253">
        <ele>339</ele>
        <time>2021-07-06T01:45:46Z</time>
      </trkpt>
      <trkpt lat="45.99418" lon="4.50317">
        <ele>344</ele>
        <time>2021-07-06T01:46:28Z</time>
      </trkpt>
      <trkpt lat="45.99413" lon="4.50342">
        <ele>348</ele>
        <time>2021-07-06T01:46:42Z</time>
      </trkpt>
      <trkpt lat="45.99403" lon="4.50351">
        <ele>348</ele>
        <time>2021-07-06T01:46:52Z</time>
      </trkpt>
      <trkpt lat="45.99369" lon="4.50364">
        <ele>343</ele>
        <time>2021-07-06T01:47:20Z</time>
      </trkpt>
      <trkpt lat="45.9935" lon="4.50376">
        <ele>341</ele>
        <time>2021-07-06T01:47:36Z</time>
      </trkpt>
      <trkpt lat="45.99332" lon="4.50392">
        <ele>341</ele>
        <time>2021-07-06T01:47:53Z</time>
      </trkpt>
      <trkpt lat="45.99292" lon="4.50398">
        <ele>339</ele>
        <time>2021-07-06T01:48:26Z</time>
      </trkpt>
      <trkpt lat="45.99258" lon="4.50413">
        <ele>340</ele>
        <time>2021-07-06T01:48:54Z</time>
      </trkpt>
      <trkpt lat="45.99213" lon="4.50418">
        <ele>339</ele>
        <time>2021-07-06T01:49:30Z</time>
      </trkpt>
      <trkpt lat="45.99188" lon="4.50413">
        <ele>336</ele>
        <time>2021-07-06T01:49:50Z</time>
      </trkpt>
      <trkpt lat="45.99166" lon="4.50413">
        <ele>335</ele>
        <time>2021-07-06T01:50:08Z</time>
      </trkpt>
      <trkpt lat="45.99146" lon="4.50416">
        <ele>336</ele>
        <time>2021-07-06T01:50:24Z</time>
      </trkpt>
      <trkpt lat="45.99124" lon="4.50426">
        <ele>340</ele>
        <time>2021-07-06T01:50:43Z</time>
      </trkpt>
      <trkpt lat="45.991" lon="4.50433">
        <ele>343</ele>
        <time>2021-07-06T01:51:02Z</time>
      </trkpt>
      <trkpt lat="45.9908" lon="4.50433">
        <ele>344</ele>
        <time>2021-07-06T01:51:18Z</time>
      </trkpt>
      <trkpt lat="45.99036" lon="4.50424">
        <ele>347</ele>
        <time>2021-07-06T01:51:54Z</time>
      </trkpt>
      <trkpt lat="45.99015" lon="4.50418">
        <ele>348</ele>
        <time>2021-07-06T01:52:11Z</time>
      </trkpt>
      <trkpt lat="45.98998" lon="4.50405">
        <ele>347</ele>
        <time>2021-07-06T01:52:26Z</time>
      </trkpt>
      <trkpt lat="45.98982" lon="4.50387">
        <ele>345</ele>
        <time>2021-07-06T01:52:43Z</time>
      </trkpt>
      <trkpt lat="45.98959" lon="4.50339">
        <ele>337</ele>
        <time>2021-07-06T01:53:15Z</time>
      </trkpt>
      <trkpt lat="45.98951" lon="4.50326">
        <ele>336</ele>
        <time>2021-07-06T01:53:25Z</time>
      </trkpt>
      <trkpt lat="45.98943" lon="4.50319">
        <ele>336</ele>
        <time>2021-07-06T01:53:32Z</time>
      </trkpt>
      <trkpt lat="45.98912" lon="4.50326">
        <ele>342</ele>
        <time>2021-07-06T01:53:57Z</time>
      </trkpt>
      <trkpt lat="45.98886" lon="4.50338">
        <ele>341</ele>
        <time>2021-07-06T01:54:19Z</time>
      </trkpt>
      <trkpt lat="45.98874" lon="4.50348">
        <ele>341</ele>
        <time>2021-07-06T01:54:30Z</time>
      </trkpt>
      <trkpt lat="45.98852" lon="4.50373">
        <ele>341</ele>
        <time>2021-07-06T01:54:53Z</time>
      </trkpt>
      <trkpt lat="45.98847" lon="4.50386">
        <ele>341</ele>
        <time>2021-07-06T01:55:01Z</time>
      </trkpt>
      <trkpt lat="45.98838" lon="4.50397">
        <ele>341</ele>
        <time>2021-07-06T01:55:10Z</time>
      </trkpt>
      <trkpt lat="45.98829" lon="4.5042">
        <ele>341</ele>
        <time>2021-07-06T01:55:25Z</time>
      </trkpt>
      <trkpt lat="45.98816" lon="4.50468">
        <ele>337</ele>
        <time>2021-07-06T01:55:54Z</time>
      </trkpt>
      <trkpt lat="45.98813" lon="4.50494">
        <ele>337</ele>
        <time>2021-07-06T01:56:08Z</time>
      </trkpt>
      <trkpt lat="45.98815" lon="4.50521">
        <ele>336</ele>
        <time>2021-07-06T01:56:24Z</time>
      </trkpt>
      <trkpt lat="45.98821" lon="4.50537">
        <ele>337</ele>
        <time>2021-07-06T01:56:34Z</time>
      </trkpt>
      <trkpt lat="45.98846" lon="4.50578">
        <ele>339</ele>
        <time>2021-07-06T01:57:04Z</time>
      </trkpt>
      <trkpt lat="45.98853" lon="4.50587">
        <ele>340</ele>
        <time>2021-07-06T01:57:12Z</time>
      </trkpt>
      <trkpt lat="45.98861" lon="4.50595">
        <ele>341</ele>
        <time>2021-07-06T01:57:19Z</time>
      </trkpt>
      <trkpt lat="45.98883" lon="4.50599">
        <ele>345</ele>
        <time>2021-07-06T01:57:37Z</time>
      </trkpt>
      <trkpt lat="45.98892" lon="4.50603">
        <ele>346</ele>
        <time>2021-07-06T01:57:45Z</time>
      </trkpt>
      <trkpt lat="45.98896" lon="4.50613">
        <ele>347</ele>
        <time>2021-07-06T01:57:51Z</time>
      </trkpt>
      <trkpt lat="45.98892" lon="4.50628">
        <ele>346</ele>
        <time>2021-07-06T01:58:00Z</time>
      </trkpt>
      <trkpt lat="45.98881" lon="4.50627">
        <ele>345</ele>
        <time>2021-07-06T01:58:09Z</time>
      </trkpt>
      <trkpt lat="45.98873" lon="4.5063">
        <ele>343</ele>
        <time>2021-07-06T01:58:15Z</time>
      </trkpt>
      <trkpt lat="45.98849" lon="4.50661">
        <ele>341</ele>
        <time>2021-07-06T01:58:41Z</time>
      </trkpt>
      <trkpt lat="45.98781" lon="4.5071">
        <ele>341</ele>
        <time>2021-07-06T01:59:42Z</time>
      </trkpt>
      <trkpt lat="45.98745" lon="4.50723">
        <ele>338</ele>
        <time>2021-07-06T02:00:12Z</time>
      </trkpt>
      <trkpt lat="45.98724" lon="4.50742">
        <ele>336</ele>
        <time>2021-07-06T02:00:32Z</time>
      </trkpt>
      <trkpt lat="45.98708" lon="4.50771">
        <ele>337</ele>
        <time>2021-07-06T02:00:52Z</time>
      </trkpt>
      <trkpt lat="45.98679" lon="4.50809">
        <ele>336</ele>
        <time>2021-07-06T02:01:24Z</time>
      </trkpt>
      <trkpt lat="45.98655" lon="4.50834">
        <ele>334</ele>
        <time>2021-07-06T02:01:47Z</time>
      </trkpt>
      <trkpt lat="45.98627" lon="4.50908">
        <ele>337</ele>
        <time>2021-07-06T02:02:34Z</time>
      </trkpt>
      <trkpt lat="45.98609" lon="4.50937">
        <ele>338</ele>
        <time>2021-07-06T02:02:56Z</time>
      </trkpt>
      <trkpt lat="45.98553" lon="4.51017">
        <ele>342</ele>
        <time>2021-07-06T02:03:59Z</time>
      </trkpt>
      <trkpt lat="45.98526" lon="4.51048">
        <ele>345</ele>
        <time>2021-07-06T02:04:27Z</time>
      </trkpt>
      <trkpt lat="45.98519" lon="4.51049">
        <ele>344</ele>
        <time>2021-07-06T02:04:32Z</time>
      </trkpt>
      <trkpt lat="45.98475" lon="4.51082">
        <ele>349</ele>
        <time>2021-07-06T02:05:12Z</time>
      </trkpt>
      <trkpt lat="45.98436" lon="4.51092">
        <ele>350</ele>
        <time>2021-07-06T02:05:44Z</time>
      </trkpt>
      <trkpt lat="45.98427" lon="4.51101">
        <ele>350</ele>
        <time>2021-07-06T02:05:53Z</time>
      </trkpt>
      <trkpt lat="45.98422" lon="4.5111">
        <ele>349</ele>
        <time>2021-07-06T02:05:59Z</time>
      </trkpt>
      <trkpt lat="45.98404" lon="4.51108">
        <ele>348</ele>
        <time>2021-07-06T02:06:13Z</time>
      </trkpt>
      <trkpt lat="45.98391" lon="4.51098">
        <ele>348</ele>
        <time>2021-07-06T02:06:25Z</time>
      </trkpt>
      <trkpt lat="45.98382" lon="4.51101">
        <ele>347</ele>
        <time>2021-07-06T02:06:33Z</time>
      </trkpt>
      <trkpt lat="45.98378" lon="4.51105">
        <ele>347</ele>
        <time>2021-07-06T02:06:37Z</time>
      </trkpt>
      <trkpt lat="45.98366" lon="4.51111">
        <ele>346</ele>
        <time>2021-07-06T02:06:47Z</time>
      </trkpt>
      <trkpt lat="45.98358" lon="4.51099">
        <ele>346</ele>
        <time>2021-07-06T02:06:56Z</time>
      </trkpt>
      <trkpt lat="45.9835" lon="4.51107">
        <ele>345</ele>
        <time>2021-07-06T02:07:04Z</time>
      </trkpt>
      <trkpt lat="45.98329" lon="4.51084">
        <ele>345</ele>
        <time>2021-07-06T02:07:25Z</time>
      </trkpt>
      <trkpt lat="45.98303" lon="4.51079">
        <ele>342</ele>
        <time>2021-07-06T02:07:46Z</time>
      </trkpt>
      <trkpt lat="45.98287" lon="4.51068">
        <ele>341</ele>
        <time>2021-07-06T02:08:00Z</time>
      </trkpt>
      <trkpt lat="45.98214" lon="4.50985">
        <ele>332</ele>
        <time>2021-07-06T02:09:15Z</time>
      </trkpt>
      <trkpt lat="45.98208" lon="4.50969">
        <ele>328</ele>
        <time>2021-07-06T02:09:25Z</time>
      </trkpt>
      <trkpt lat="45.98206" lon="4.50953">
        <ele>325</ele>
        <time>2021-07-06T02:09:34Z</time>
      </trkpt>
      <trkpt lat="45.98194" lon="4.50952">
        <ele>324</ele>
        <time>2021-07-06T02:09:43Z</time>
      </trkpt>
      <trkpt lat="45.98162" lon="4.5093">
        <ele>319</ele>
        <time>2021-07-06T02:10:12Z</time>
      </trkpt>
      <trkpt lat="45.98096" lon="4.50847">
        <ele>312</ele>
        <time>2021-07-06T02:11:22Z</time>
      </trkpt>
      <trkpt lat="45.98056" lon="4.50818">
        <ele>316</ele>
        <time>2021-07-06T02:11:58Z</time>
      </trkpt>
      <trkpt lat="45.98041" lon="4.50797">
        <ele>317</ele>
        <time>2021-07-06T02:12:15Z</time>
      </trkpt>
      <trkpt lat="45.98048" lon="4.50767">
        <ele>313</ele>
        <time>2021-07-06T02:12:32Z</time>
      </trkpt>
      <trkpt lat="45.98034" lon="4.50744">
        <ele>313</ele>
        <time>2021-07-06T02:12:49Z</time>
      </trkpt>
      <trkpt lat="45.98007" lon="4.50696">
        <ele>312</ele>
        <time>2021-07-06T02:13:24Z</time>
      </trkpt>
      <trkpt lat="45.97989" lon="4.50675">
        <ele>309</ele>
        <time>2021-07-06T02:13:42Z</time>
      </trkpt>
      <trkpt lat="45.97973" lon="4.50666">
        <ele>308</ele>
        <time>2021-07-06T02:13:56Z</time>
      </trkpt>
      <trkpt lat="45.97958" lon="4.5066">
        <ele>308</ele>
        <time>2021-07-06T02:14:08Z</time>
      </trkpt>
      <trkpt lat="45.97938" lon="4.50658">
        <ele>308</ele>
        <time>2021-07-06T02:14:24Z</time>
      </trkpt>
      <trkpt lat="45.97918" lon="4.50661">
        <ele>308</ele>
        <time>2021-07-06T02:14:41Z</time>
      </trkpt>
      <trkpt lat="45.97901" lon="4.50672">
        <ele>308</ele>
        <time>2021-07-06T02:14:55Z</time>
      </trkpt>
      <trkpt lat="45.97883" lon="4.50688">
        <ele>309</ele>
        <time>2021-07-06T02:15:12Z</time>
      </trkpt>
      <trkpt lat="45.97868" lon="4.50709">
        <ele>310</ele>
        <time>2021-07-06T02:15:29Z</time>
      </trkpt>
      <trkpt lat="45.97848" lon="4.50747">
        <ele>311</ele>
        <time>2021-07-06T02:15:56Z</time>
      </trkpt>
      <trkpt lat="45.97831" lon="4.50764">
        <ele>312</ele>
        <time>2021-07-06T02:16:12Z</time>
      </trkpt>
      <trkpt lat="45.9778" lon="4.50798">
        <ele>312</ele>
        <time>2021-07-06T02:16:57Z</time>
      </trkpt>
      <trkpt lat="45.97762" lon="4.50806">
        <ele>312</ele>
        <time>2021-07-06T02:17:12Z</time>
      </trkpt>
      <trkpt lat="45.97746" lon="4.50809">
        <ele>311</ele>
        <time>2021-07-06T02:17:25Z</time>
      </trkpt>
      <trkpt lat="45.97716" lon="4.50806">
        <ele>311</ele>
        <time>2021-07-06T02:17:49Z</time>
      </trkpt>
      <trkpt lat="45.97686" lon="4.50797">
        <ele>309</ele>
        <time>2021-07-06T02:18:14Z</time>
      </trkpt>
      <trkpt lat="45.9765" lon="4.50792">
        <ele>308</ele>
        <time>2021-07-06T02:18:43Z</time>
      </trkpt>
      <trkpt lat="45.97646" lon="4.50785">
        <ele>306</ele>
        <time>2021-07-06T02:18:48Z</time>
      </trkpt>
      <trkpt lat="45.97641" lon="4.50781">
        <ele>305</ele>
        <time>2021-07-06T02:18:52Z</time>
      </trkpt>
      <trkpt lat="45.97546" lon="4.50764">
        <ele>298</ele>
        <time>2021-07-06T02:20:09Z</time>
      </trkpt>
      <trkpt lat="45.97532" lon="4.50758">
        <ele>296</ele>
        <time>2021-07-06T02:20:21Z</time>
      </trkpt>
      <trkpt lat="45.97525" lon="4.50745">
        <ele>294</ele>
        <time>2021-07-06T02:20:30Z</time>
      </trkpt>
      <trkpt lat="45.97514" lon="4.507">
        <ele>294</ele>
        <time>2021-07-06T02:20:56Z</time>
      </trkpt>
      <trkpt lat="45.97496" lon="4.50664">
        <ele>294</ele>
        <time>2021-07-06T02:21:21Z</time>
      </trkpt>
      <trkpt lat="45.97494" lon="4.50652">
        <ele>295</ele>
        <time>2021-07-06T02:21:28Z</time>
      </trkpt>
      <trkpt lat="45.97494" lon="4.5064">
        <ele>296</ele>
        <time>2021-07-06T02:21:35Z</time>
      </trkpt>
      <trkpt lat="45.97494" lon="4.50626">
        <ele>297</ele>
        <time>2021-07-06T02:21:42Z</time>
      </trkpt>
      <trkpt lat="45.97493" lon="4.50571">
        <ele>302</ele>
        <time>2021-07-06T02:22:13Z</time>
      </trkpt>
      <trkpt lat="45.97486" lon="4.5056">
        <ele>304</ele>
        <time>2021-07-06T02:22:21Z</time>
      </trkpt>
      <trkpt lat="45.97478" lon="4.50564">
        <ele>305</ele>
        <time>2021-07-06T02:22:28Z</time>
      </trkpt>
      <trkpt lat="45.97466" lon="4.50581">
        <ele>305</ele>
        <time>2021-07-06T02:22:42Z</time>
      </trkpt>
      <trkpt lat="45.9745" lon="4.50587">
        <ele>307</ele>
        <time>2021-07-06T02:22:55Z</time>
      </trkpt>
      <trkpt lat="45.97408" lon="4.50592">
        <ele>312</ele>
        <time>2021-07-06T02:23:29Z</time>
      </trkpt>
      <trkpt lat="45.97376" lon="4.50592">
        <ele>314</ele>
        <time>2021-07-06T02:23:54Z</time>
      </trkpt>
      <trkpt lat="45.97346" lon="4.50578">
        <ele>318</ele>
        <time>2021-07-06T02:24:20Z</time>
      </trkpt>
      <trkpt lat="45.97328" lon="4.50557">
        <ele>321</ele>
        <time>2021-07-06T02:24:38Z</time>
      </trkpt>
      <trkpt lat="45.97306" lon="4.50515">
        <ele>326</ele>
        <time>2021-07-06T02:25:07Z</time>
      </trkpt>
      <trkpt lat="45.97283" lon="4.50482">
        <ele>327</ele>
        <time>2021-07-06T02:25:33Z</time>
      </trkpt>
      <trkpt lat="45.97262" lon="4.50462">
        <ele>328</ele>
        <time>2021-07-06T02:25:54Z</time>
      </trkpt>
      <trkpt lat="45.97238" lon="4.50454">
        <ele>328</ele>
        <time>2021-07-06T02:26:13Z</time>
      </trkpt>
      <trkpt lat="45.97214" lon="4.50462">
        <ele>328</ele>
        <time>2021-07-06T02:26:33Z</time>
      </trkpt>
      <trkpt lat="45.97164" lon="4.50483">
        <ele>328</ele>
        <time>2021-07-06T02:27:15Z</time>
      </trkpt>
      <trkpt lat="45.97099" lon="4.50504">
        <ele>336</ele>
        <time>2021-07-06T02:28:08Z</time>
      </trkpt>
      <trkpt lat="45.97055" lon="4.50513">
        <ele>340</ele>
        <time>2021-07-06T02:28:44Z</time>
      </trkpt>
      <trkpt lat="45.97031" lon="4.50511">
        <ele>342</ele>
        <time>2021-07-06T02:29:03Z</time>
      </trkpt>
      <trkpt lat="45.97012" lon="4.50501">
        <ele>346</ele>
        <time>2021-07-06T02:29:19Z</time>
      </trkpt>
      <trkpt lat="45.9698" lon="4.50471">
        <ele>349</ele>
        <time>2021-07-06T02:29:50Z</time>
      </trkpt>
      <trkpt lat="45.96959" lon="4.50443">
        <ele>351</ele>
        <time>2021-07-06T02:30:13Z</time>
      </trkpt>
      <trkpt lat="45.96952" lon="4.50418">
        <ele>354</ele>
        <time>2021-07-06T02:30:28Z</time>
      </trkpt>
      <trkpt lat="45.96954" lon="4.50393">
        <ele>358</ele>
        <time>2021-07-06T02:30:42Z</time>
      </trkpt>
      <trkpt lat="45.96948" lon="4.50359">
        <ele>363</ele>
        <time>2021-07-06T02:31:01Z</time>
      </trkpt>
      <trkpt lat="45.96927" lon="4.50336">
        <ele>366</ele>
        <time>2021-07-06T02:31:22Z</time>
      </trkpt>
      <trkpt lat="45.969" lon="4.5031">
        <ele>369</ele>
        <time>2021-07-06T02:31:48Z</time>
      </trkpt>
      <trkpt lat="45.96868" lon="4.50297">
        <ele>370</ele>
        <time>2021-07-06T02:32:15Z</time>
      </trkpt>
      <trkpt lat="45.96859" lon="4.50295">
        <ele>371</ele>
        <time>2021-07-06T02:32:22Z</time>
      </trkpt>
      <trkpt lat="45.96832" lon="4.50291">
        <ele>371</ele>
        <time>2021-07-06T02:32:44Z</time>
      </trkpt>
      <trkpt lat="45.96816" lon="4.50294">
        <ele>370</ele>
        <time>2021-07-06T02:32:57Z</time>
      </trkpt>
      <trkpt lat="45.96795" lon="4.50291">
        <ele>369</ele>
        <time>2021-07-06T02:33:14Z</time>
      </trkpt>
      <trkpt lat="45.96778" lon="4.50281">
        <ele>369</ele>
        <time>2021-07-06T02:33:28Z</time>
      </trkpt>
      <trkpt lat="45.96763" lon="4.50261">
        <ele>371</ele>
        <time>2021-07-06T02:33:45Z</time>
      </trkpt>
      <trkpt lat="45.96744" lon="4.50222">
        <ele>375</ele>
        <time>2021-07-06T02:34:11Z</time>
      </trkpt>
      <trkpt lat="45.96667" lon="4.50102">
        <ele>372</ele>
        <time>2021-07-06T02:35:42Z</time>
      </trkpt>
      <trkpt lat="45.9664" lon="4.5007">
        <ele>374</ele>
        <time>2021-07-06T02:36:10Z</time>
      </trkpt>
      <trkpt lat="45.96624" lon="4.50083">
        <ele>372</ele>
        <time>2021-07-06T02:36:25Z</time>
      </trkpt>
      <trkpt lat="45.96571" lon="4.50135">
        <ele>360</ele>
        <time>2021-07-06T02:37:16Z</time>
      </trkpt>
      <trkpt lat="45.9654" lon="4.50141">
        <ele>360</ele>
        <time>2021-07-06T02:37:41Z</time>
      </trkpt>
      <trkpt lat="45.96508" lon="4.50127">
        <ele>362</ele>
        <time>2021-07-06T02:38:08Z</time>
      </trkpt>
      <trkpt lat="45.96494" lon="4.50125">
        <ele>363</ele>
        <time>2021-07-06T02:38:19Z</time>
      </trkpt>
      <trkpt lat="45.96485" lon="4.50135">
        <ele>365</ele>
        <time>2021-07-06T02:38:28Z</time>
      </trkpt>
      <trkpt lat="45.96484" lon="4.50157">
        <ele>364</ele>
        <time>2021-07-06T02:38:41Z</time>
      </trkpt>
      <trkpt lat="45.96531" lon="4.50254">
        <ele>360</ele>
        <time>2021-07-06T02:39:47Z</time>
      </trkpt>
      <trkpt lat="45.96592" lon="4.50319">
        <ele>349</ele>
        <time>2021-07-06T02:40:47Z</time>
      </trkpt>
      <trkpt lat="45.96628" lon="4.50389">
        <ele>342</ele>
        <time>2021-07-06T02:41:36Z</time>
      </trkpt>
      <trkpt lat="45.9664" lon="4.5044">
        <ele>336</ele>
        <time>2021-07-06T02:42:06Z</time>
      </trkpt>
      <trkpt lat="45.96642" lon="4.50525">
        <ele>329</ele>
        <time>2021-07-06T02:42:53Z</time>
      </trkpt>
      <trkpt lat="45.96626" lon="4.50617">
        <ele>324</ele>
        <time>2021-07-06T02:43:46Z</time>
      </trkpt>
      <trkpt lat="45.96615" lon="4.50657">
        <ele>320</ele>
        <time>2021-07-06T02:44:10Z</time>
      </trkpt>
      <trkpt lat="45.96593" lon="4.507">
        <ele>317</ele>
        <time>2021-07-06T02:44:39Z</time>
      </trkpt>
      <trkpt lat="45.96578" lon="4.50735">
        <ele>315</ele>
        <time>2021-07-06T02:45:02Z</time>
      </trkpt>
      <trkpt lat="45.96551" lon="4.50823">
        <ele>310</ele>
        <time>2021-07-06T02:45:56Z</time>
      </trkpt>
      <trkpt lat="45.96539" lon="4.50871">
        <ele>306</ele>
        <time>2021-07-06T02:46:24Z</time>
      </trkpt>
      <trkpt lat="45.96534" lon="4.50882">
        <ele>306</ele>
        <time>2021-07-06T02:46:32Z</time>
      </trkpt>
      <trkpt lat="45.96526" lon="4.50892">
        <ele>305</ele>
        <time>2021-07-06T02:46:40Z</time>
      </trkpt>
      <trkpt lat="45.96493" lon="4.50906">
        <ele>307</ele>
        <time>2021-07-06T02:47:08Z</time>
      </trkpt>
      <trkpt lat="45.96486" lon="4.50914">
        <ele>306</ele>
        <time>2021-07-06T02:47:15Z</time>
      </trkpt>
      <trkpt lat="45.96484" lon="4.50923">
        <ele>306</ele>
        <time>2021-07-06T02:47:20Z</time>
      </trkpt>
      <trkpt lat="45.96482" lon="4.50938">
        <ele>304</ele>
        <time>2021-07-06T02:47:29Z</time>
      </trkpt>
      <trkpt lat="45.96481" lon="4.50942">
        <ele>303</ele>
        <time>2021-07-06T02:47:31Z</time>
      </trkpt>
      <trkpt lat="45.96477" lon="4.50949">
        <ele>303</ele>
        <time>2021-07-06T02:47:36Z</time>
      </trkpt>
      <trkpt lat="45.96461" lon="4.50961">
        <ele>302</ele>
        <time>2021-07-06T02:47:50Z</time>
      </trkpt>
      <trkpt lat="45.96449" lon="4.50972">
        <ele>301</ele>
        <time>2021-07-06T02:48:02Z</time>
      </trkpt>
      <trkpt lat="45.96434" lon="4.50996">
        <ele>298</ele>
        <time>2021-07-06T02:48:20Z</time>
      </trkpt>
      <trkpt lat="45.96425" lon="4.51017">
        <ele>296</ele>
        <time>2021-07-06T02:48:34Z</time>
      </trkpt>
      <trkpt lat="45.96422" lon="4.51042">
        <ele>294</ele>
        <time>2021-07-06T02:48:48Z</time>
      </trkpt>
      <trkpt lat="45.96404" lon="4.51053">
        <ele>293</ele>
        <time>2021-07-06T02:49:03Z</time>
      </trkpt>
      <trkpt lat="45.96389" lon="4.51057">
        <ele>294</ele>
        <time>2021-07-06T02:49:15Z</time>
      </trkpt>
      <trkpt lat="45.96379" lon="4.51043">
        <ele>295</ele>
        <time>2021-07-06T02:49:27Z</time>
      </trkpt>
      <trkpt lat="45.96368" lon="4.51032">
        <ele>297</ele>
        <time>2021-07-06T02:49:37Z</time>
      </trkpt>
      <trkpt lat="45.96355" lon="4.5102">
        <ele>298</ele>
        <time>2021-07-06T02:49:50Z</time>
      </trkpt>
      <trkpt lat="45.96341" lon="4.51001">
        <ele>300</ele>
        <time>2021-07-06T02:50:05Z</time>
      </trkpt>
      <trkpt lat="45.96325" lon="4.51016">
        <ele>301</ele>
        <time>2021-07-06T02:50:20Z</time>
      </trkpt>
      <trkpt lat="45.96304" lon="4.5105">
        <ele>304</ele>
        <time>2021-07-06T02:50:46Z</time>
      </trkpt>
      <trkpt lat="45.96288" lon="4.51062">
        <ele>306</ele>
        <time>2021-07-06T02:51:00Z</time>
      </trkpt>
      <trkpt lat="45.96264" lon="4.51068">
        <ele>311</ele>
        <time>2021-07-06T02:51:20Z</time>
      </trkpt>
      <trkpt lat="45.96209" lon="4.51099">
        <ele>323</ele>
        <time>2021-07-06T02:52:07Z</time>
      </trkpt>
      <trkpt lat="45.96183" lon="4.51135">
        <ele>324</ele>
        <time>2021-07-06T02:52:36Z</time>
      </trkpt>
      <trkpt lat="45.96134" lon="4.51188">
        <ele>327</ele>
        <time>2021-07-06T02:53:25Z</time>
      </trkpt>
      <trkpt lat="45.96077" lon="4.51243">
        <ele>325</ele>
        <time>2021-07-06T02:54:20Z</time>
      </trkpt>
      <trkpt lat="45.96017" lon="4.51297">
        <ele>321</ele>
        <time>2021-07-06T02:55:17Z</time>
      </trkpt>
      <trkpt lat="45.95961" lon="4.51335">
        <ele>318</ele>
        <time>2021-07-06T02:56:06Z</time>
      </trkpt>
      <trkpt lat="45.95907" lon="4.51363">
        <ele>316</ele>
        <time>2021-07-06T02:56:52Z</time>
      </trkpt>
      <trkpt lat="45.95873" lon="4.51369">
        <ele>316</ele>
        <time>2021-07-06T02:57:20Z</time>
      </trkpt>
      <trkpt lat="45.95805" lon="4.51418">
        <ele>314</ele>
        <time>2021-07-06T02:58:20Z</time>
      </trkpt>
      <trkpt lat="45.95771" lon="4.51439">
        <ele>313</ele>
        <time>2021-07-06T02:58:50Z</time>
      </trkpt>
      <trkpt lat="45.95738" lon="4.51453">
        <ele>314</ele>
        <time>2021-07-06T02:59:18Z</time>
      </trkpt>
      <trkpt lat="45.957" lon="4.5148">
        <ele>315</ele>
        <time>2021-07-06T02:59:52Z</time>
      </trkpt>
      <trkpt lat="45.9565" lon="4.51531">
        <ele>316</ele>
        <time>2021-07-06T03:00:41Z</time>
      </trkpt>
      <trkpt lat="45.9563" lon="4.51546">
        <ele>317</ele>
        <time>2021-07-06T03:00:59Z</time>
      </trkpt>
      <trkpt lat="45.95544" lon="4.51567">
        <ele>326</ele>
        <time>2021-07-06T03:02:09Z</time>
      </trkpt>
      <trkpt lat="45.95516" lon="4.51579">
        <ele>330</ele>
        <time>2021-07-06T03:02:32Z</time>
      </trkpt>
      <trkpt lat="45.95477" lon="4.5163">
        <ele>333</ele>
        <time>2021-07-06T03:03:14Z</time>
      </trkpt>
      <trkpt lat="45.9546" lon="4.51642">
        <ele>336</ele>
        <time>2021-07-06T03:03:29Z</time>
      </trkpt>
      <trkpt lat="45.95436" lon="4.51663">
        <ele>338</ele>
        <time>2021-07-06T03:03:52Z</time>
      </trkpt>
      <trkpt lat="45.95421" lon="4.51685">
        <ele>338</ele>
        <time>2021-07-06T03:04:09Z</time>
      </trkpt>
      <trkpt lat="45.95392" lon="4.51721">
        <ele>338</ele>
        <time>2021-07-06T03:04:40Z</time>
      </trkpt>
      <trkpt lat="45.95387" lon="4.51725">
        <ele>339</ele>
        <time>2021-07-06T03:04:44Z</time>
      </trkpt>
      <trkpt lat="45.95386" lon="4.51737">
        <ele>337</ele>
        <time>2021-07-06T03:04:51Z</time>
      </trkpt>
      <trkpt lat="45.95372" lon="4.51768">
        <ele>335</ele>
        <time>2021-07-06T03:05:12Z</time>
      </trkpt>
      <trkpt lat="45.95351" lon="4.51794">
        <ele>335</ele>
        <time>2021-07-06T03:05:34Z</time>
      </trkpt>
      <trkpt lat="45.9534" lon="4.51813">
        <ele>334</ele>
        <time>2021-07-06T03:05:47Z</time>
      </trkpt>
      <trkpt lat="45.95322" lon="4.5189">
        <ele>325</ele>
        <time>2021-07-06T03:06:33Z</time>
      </trkpt>
      <trkpt lat="45.95272" lon="4.51945">
        <ele>324</ele>
        <time>2021-07-06T03:07:23Z</time>
      </trkpt>
      <trkpt lat="45.95229" lon="4.52">
        <ele>325</ele>
        <time>2021-07-06T03:08:09Z</time>
      </trkpt>
      <trkpt lat="45.95203" lon="4.52049">
        <ele>324</ele>
        <time>2021-07-06T03:08:43Z</time>
      </trkpt>
      <trkpt lat="45.95177" lon="4.52076">
        <ele>324</ele>
        <time>2021-07-06T03:09:09Z</time>
      </trkpt>
      <trkpt lat="45.95139" lon="4.52122">
        <ele>324</ele>
        <time>2021-07-06T03:09:49Z</time>
      </trkpt>
      <trkpt lat="45.95119" lon="4.52143">
        <ele>325</ele>
        <time>2021-07-06T03:10:09Z</time>
      </trkpt>
      <trkpt lat="45.95091" lon="4.52166">
        <ele>327</ele>
        <time>2021-07-06T03:10:35Z</time>
      </trkpt>
      <trkpt lat="45.95048" lon="4.52166">
        <ele>339</ele>
        <time>2021-07-06T03:11:09Z</time>
      </trkpt>
      <trkpt lat="45.94995" lon="4.5232">
        <ele>326</ele>
        <time>2021-07-06T03:12:45Z</time>
      </trkpt>
      <trkpt lat="45.94989" lon="4.52322">
        <ele>327</ele>
        <time>2021-07-06T03:12:50Z</time>
      </trkpt>
      <trkpt lat="45.94975" lon="4.52339">
        <ele>328</ele>
        <time>2021-07-06T03:13:04Z</time>
      </trkpt>
      <trkpt lat="45.94883" lon="4.52406">
        <ele>338</ele>
        <time>2021-07-06T03:14:27Z</time>
      </trkpt>
      <trkpt lat="45.94867" lon="4.52414">
        <ele>341</ele>
        <time>2021-07-06T03:14:40Z</time>
      </trkpt>
      <trkpt lat="45.94852" lon="4.52418">
        <ele>344</ele>
        <time>2021-07-06T03:14:53Z</time>
      </trkpt>
      <trkpt lat="45.94791" lon="4.5242">
        <ele>349</ele>
        <time>2021-07-06T03:15:41Z</time>
      </trkpt>
      <trkpt lat="45.9473" lon="4.52466">
        <ele>345</ele>
        <time>2021-07-06T03:16:37Z</time>
      </trkpt>
      <trkpt lat="45.94705" lon="4.52503">
        <ele>345</ele>
        <time>2021-07-06T03:17:05Z</time>
      </trkpt>
      <trkpt lat="45.94677" lon="4.52533">
        <ele>346</ele>
        <time>2021-07-06T03:17:33Z</time>
      </trkpt>
      <trkpt lat="45.94644" lon="4.52551">
        <ele>347</ele>
        <time>2021-07-06T03:18:02Z</time>
      </trkpt>
      <trkpt lat="45.94628" lon="4.52566">
        <ele>348</ele>
        <time>2021-07-06T03:18:17Z</time>
      </trkpt>
      <trkpt lat="45.94616" lon="4.52581">
        <ele>350</ele>
        <time>2021-07-06T03:18:30Z</time>
      </trkpt>
      <trkpt lat="45.94604" lon="4.52602">
        <ele>351</ele>
        <time>2021-07-06T03:18:45Z</time>
      </trkpt>
      <trkpt lat="45.94596" lon="4.5262">
        <ele>352</ele>
        <time>2021-07-06T03:18:57Z</time>
      </trkpt>
      <trkpt lat="45.94586" lon="4.52655">
        <ele>356</ele>
        <time>2021-07-06T03:19:18Z</time>
      </trkpt>
      <trkpt lat="45.94575" lon="4.52651">
        <ele>354</ele>
        <time>2021-07-06T03:19:27Z</time>
      </trkpt>
      <trkpt lat="45.94551" lon="4.52721">
        <ele>349</ele>
        <time>2021-07-06T03:20:10Z</time>
      </trkpt>
      <trkpt lat="45.94551" lon="4.52729">
        <ele>349</ele>
        <time>2021-07-06T03:20:15Z</time>
      </trkpt>
      <trkpt lat="45.94555" lon="4.52734">
        <ele>349</ele>
        <time>2021-07-06T03:20:19Z</time>
      </trkpt>
      <trkpt lat="45.94541" lon="4.52755">
        <ele>349</ele>
        <time>2021-07-06T03:20:35Z</time>
      </trkpt>
      <trkpt lat="45.94502" lon="4.5281">
        <ele>352</ele>
        <time>2021-07-06T03:21:19Z</time>
      </trkpt>
      <trkpt lat="45.94483" lon="4.5284">
        <ele>353</ele>
        <time>2021-07-06T03:21:41Z</time>
      </trkpt>
      <trkpt lat="45.94468" lon="4.52883">
        <ele>350</ele>
        <time>2021-07-06T03:22:08Z</time>
      </trkpt>
      <trkpt lat="45.94461" lon="4.52894">
        <ele>350</ele>
        <time>2021-07-06T03:22:17Z</time>
      </trkpt>
      <trkpt lat="45.94452" lon="4.52894">
        <ele>352</ele>
        <time>2021-07-06T03:22:24Z</time>
      </trkpt>
      <trkpt lat="45.9444" lon="4.52899">
        <ele>354</ele>
        <time>2021-07-06T03:22:34Z</time>
      </trkpt>
      <trkpt lat="45.94436" lon="4.52905">
        <ele>355</ele>
        <time>2021-07-06T03:22:38Z</time>
      </trkpt>
      <trkpt lat="45.9442" lon="4.52918">
        <ele>359</ele>
        <time>2021-07-06T03:22:53Z</time>
      </trkpt>
      <trkpt lat="45.94412" lon="4.52924">
        <ele>358</ele>
        <time>2021-07-06T03:23:00Z</time>
      </trkpt>
      <trkpt lat="45.94402" lon="4.5292">
        <ele>355</ele>
        <time>2021-07-06T03:23:09Z</time>
      </trkpt>
      <trkpt lat="45.94387" lon="4.52931">
        <ele>350</ele>
        <time>2021-07-06T03:23:22Z</time>
      </trkpt>
      <trkpt lat="45.94385" lon="4.52936">
        <ele>349</ele>
        <time>2021-07-06T03:23:25Z</time>
      </trkpt>
    </trkseg>
  </trk>
</gpx>